createdAt,value
2018-03-27T00:02:14.431Z,20.70
2018-03-27T00:04:41.972Z,24.77
2018-03-27T00:07:09.552Z,21.70
2018-03-27T00:09:37.092Z,21.33
2018-03-27T00:12:04.704Z,27.30
2018-03-27T00:14:32.237Z,17.73
2018-03-27T00:17:00.568Z,18.10
2018-03-27T00:19:28.110Z,20.80
2018-03-27T00:21:56.420Z,19.97
2018-03-27T00:24:24.008Z,17.13
2018-03-27T00:27:00.191Z,19.20
2018-03-27T00:29:39.564Z,19.67
2018-03-27T00:32:18.955Z,19.93
2018-03-27T00:34:58.320Z,20.40
2018-03-27T00:37:37.788Z,21.00
2018-03-27T00:40:17.175Z,20.87
2018-03-27T00:42:56.060Z,19.50
2018-03-27T00:45:23.590Z,21.00
2018-03-27T00:47:51.927Z,20.70
2018-03-27T00:50:19.468Z,23.13
2018-03-27T00:52:47.814Z,23.20
2018-03-27T00:55:15.376Z,25.03
2018-03-27T00:57:42.917Z,20.03
2018-03-27T01:00:10.481Z,24.20
2018-03-27T01:02:38.023Z,19.40
2018-03-27T01:05:09.471Z,23.20
2018-03-27T01:07:37.022Z,21.17
2018-03-27T01:10:13.362Z,20.90
2018-03-27T01:12:40.900Z,21.13
2018-03-27T01:15:08.460Z,21.87
2018-03-27T01:17:35.999Z,28.70
2018-03-27T01:20:03.564Z,29.63
2018-03-27T01:22:31.111Z,22.37
2018-03-27T01:24:59.436Z,24.87
2018-03-27T01:27:26.987Z,22.93
2018-03-27T01:29:54.564Z,21.63
2018-03-27T01:32:22.103Z,26.27
2018-03-27T01:34:50.437Z,24.30
2018-03-27T01:37:17.971Z,23.77
2018-03-27T01:39:46.300Z,27.30
2018-03-27T01:42:13.867Z,25.33
2018-03-27T01:44:41.419Z,20.90
2018-03-27T01:47:08.977Z,29.20
2018-03-27T01:49:37.299Z,24.50
2018-03-27T01:52:04.838Z,26.33
2018-03-27T01:54:32.395Z,25.10
2018-03-27T01:57:00.698Z,20.00
2018-03-27T01:59:29.036Z,21.37
2018-03-27T02:01:57.361Z,23.70
2018-03-27T02:04:24.979Z,21.77
2018-03-27T02:06:52.523Z,23.90
2018-03-27T02:09:20.855Z,22.00
2018-03-27T02:11:54.195Z,27.43
2018-03-27T02:14:27.500Z,29.03
2018-03-27T02:17:00.676Z,22.67
2018-03-27T02:19:34.071Z,26.90
2018-03-27T02:22:01.130Z,23.53
2018-03-27T02:24:43.568Z,24.90
2018-03-27T02:27:11.103Z,29.70
2018-03-27T02:29:38.663Z,24.60
2018-03-27T02:32:07.708Z,26.70
2018-03-27T02:34:35.274Z,31.83
2018-03-27T02:37:02.820Z,24.80
2018-03-27T02:39:30.392Z,25.77
2018-03-27T02:41:57.967Z,25.70
2018-03-27T02:44:25.570Z,23.83
2018-03-27T02:46:53.113Z,27.10
2018-03-27T02:49:20.673Z,24.67
2018-03-27T02:51:48.264Z,27.67
2018-03-27T02:54:15.837Z,37.33
2018-03-27T02:56:43.400Z,25.97
2018-03-27T02:59:11.002Z,33.10
2018-03-27T03:01:38.548Z,27.30
2018-03-27T03:04:06.095Z,34.20
2018-03-27T03:06:34.416Z,30.83
2018-03-27T03:09:01.971Z,33.97
2018-03-27T03:11:29.546Z,33.27
2018-03-27T03:13:57.096Z,25.23
2018-03-27T03:16:25.424Z,28.63
2018-03-27T03:18:52.973Z,28.93
2018-03-27T03:21:21.304Z,23.70
2018-03-27T03:23:48.855Z,26.90
2018-03-27T03:26:16.425Z,26.53
2018-03-27T03:28:43.976Z,18.00
2018-03-27T03:31:12.329Z,27.93
2018-03-27T03:33:39.872Z,29.73
2018-03-27T03:36:07.443Z,26.43
2018-03-27T03:38:34.984Z,27.67
2018-03-27T03:41:02.594Z,21.33
2018-03-27T03:43:30.143Z,23.23
2018-03-27T03:45:57.699Z,22.53
2018-03-27T03:48:26.000Z,22.60
2018-03-27T03:50:53.561Z,24.13
2018-03-27T03:53:21.111Z,23.03
2018-03-27T03:55:49.439Z,25.07
2018-03-27T03:58:17.002Z,24.23
2018-03-27T04:00:44.560Z,21.37
2018-03-27T04:03:12.859Z,18.40
2018-03-27T04:05:40.410Z,19.90
2018-03-27T04:08:08.719Z,24.30
2018-03-27T04:10:36.280Z,17.90
2018-03-27T04:13:04.590Z,22.60
2018-03-27T04:15:32.756Z,31.07
2018-03-27T04:18:01.068Z,28.40
2018-03-27T04:20:28.630Z,34.50
2018-03-27T04:22:56.176Z,19.97
2018-03-27T04:25:24.503Z,23.83
2018-03-27T04:27:52.056Z,23.33
2018-03-27T04:30:19.618Z,28.43
2018-03-27T04:32:47.928Z,27.53
2018-03-27T04:35:15.525Z,30.90
2018-03-27T04:37:43.088Z,26.13
2018-03-27T04:40:10.651Z,22.37
2018-03-27T04:42:38.195Z,24.40
2018-03-27T04:45:06.523Z,29.07
2018-03-27T04:47:34.070Z,27.00
2018-03-27T04:50:01.626Z,26.73
2018-03-27T04:52:30.003Z,25.53
2018-03-27T04:54:57.521Z,20.27
2018-03-27T04:57:25.126Z,24.93
2018-03-27T04:59:52.671Z,28.07
2018-03-27T05:02:20.341Z,23.00
2018-03-27T05:04:47.855Z,20.90
2018-03-27T05:07:15.425Z,26.80
2018-03-27T05:09:42.964Z,27.20
2018-03-27T05:12:11.294Z,19.60
2018-03-27T05:14:39.624Z,19.00
2018-03-27T05:17:07.235Z,20.20
2018-03-27T05:19:34.899Z,22.67
2018-03-27T05:22:02.483Z,21.83
2018-03-27T05:24:30.029Z,26.80
2018-03-27T05:26:57.620Z,22.30
2018-03-27T05:29:25.150Z,28.13
2018-03-27T05:31:52.713Z,20.70
2018-03-27T05:34:20.247Z,22.40
2018-03-27T05:36:47.828Z,19.70
2018-03-27T05:39:15.370Z,25.40
2018-03-27T05:41:42.919Z,25.20
2018-03-27T05:44:10.459Z,32.83
2018-03-27T05:46:38.023Z,45.00
2018-03-27T05:49:06.327Z,30.67
2018-03-27T05:51:33.880Z,31.37
2018-03-27T05:54:02.206Z,28.50
2018-03-27T05:56:29.764Z,27.03
2018-03-27T05:58:57.312Z,30.00
2018-03-27T06:01:25.631Z,25.70
2018-03-27T06:03:53.175Z,30.27
2018-03-27T06:06:21.502Z,36.80
2018-03-27T06:08:49.047Z,30.07
2018-03-27T06:11:16.653Z,25.07
2018-03-27T06:13:44.171Z,32.87
2018-03-27T06:16:12.513Z,37.10
2018-03-27T06:18:40.095Z,34.53
2018-03-27T06:21:07.680Z,30.77
2018-03-27T06:23:35.227Z,30.87
2018-03-27T06:26:02.793Z,28.20
2018-03-27T06:28:30.340Z,31.53
2018-03-27T06:30:57.904Z,32.17
2018-03-27T06:33:26.234Z,24.13
2018-03-27T06:35:53.772Z,24.33
2018-03-27T06:38:21.323Z,27.93
2018-03-27T06:40:49.631Z,26.60
2018-03-27T06:43:17.187Z,27.90
2018-03-27T06:45:45.486Z,25.67
2018-03-27T06:48:13.815Z,25.87
2018-03-27T06:50:41.353Z,29.50
2018-03-27T06:53:08.919Z,20.23
2018-03-27T06:55:36.467Z,23.70
2018-03-27T06:58:04.030Z,20.70
2018-03-27T07:00:31.572Z,21.77
2018-03-27T07:02:59.119Z,20.10
2018-03-27T07:05:26.783Z,19.77
2018-03-27T07:07:54.256Z,21.40
2018-03-27T07:10:21.802Z,22.70
2018-03-27T07:12:49.364Z,24.73
2018-03-27T07:15:16.907Z,21.90
2018-03-27T07:17:44.472Z,23.73
2018-03-27T07:20:12.814Z,20.63
2018-03-27T07:22:41.139Z,25.40
2018-03-27T07:25:08.676Z,22.07
2018-03-27T07:27:36.256Z,21.87
2018-03-27T07:30:04.555Z,19.60
2018-03-27T07:32:32.111Z,20.47
2018-03-27T07:34:59.667Z,22.17
2018-03-27T07:37:27.224Z,23.70
2018-03-27T07:39:54.764Z,20.67
2018-03-27T07:42:22.351Z,24.00
2018-03-27T07:44:49.888Z,23.37
2018-03-27T07:47:17.448Z,32.43
2018-03-27T07:49:45.750Z,21.90
2018-03-27T07:52:13.321Z,26.30
2018-03-27T07:54:40.860Z,23.37
2018-03-27T07:57:08.414Z,18.50
2018-03-27T07:59:35.943Z,18.70
2018-03-27T08:02:03.504Z,21.70
2018-03-27T08:04:31.040Z,18.60
2018-03-27T08:06:58.601Z,18.67
2018-03-27T08:09:26.135Z,19.23
2018-03-27T08:11:53.679Z,19.27
2018-03-27T08:14:21.240Z,20.13
2018-03-27T08:16:49.552Z,20.37
2018-03-27T08:19:17.121Z,20.17
2018-03-27T08:21:44.692Z,17.73
2018-03-27T08:24:12.514Z,16.93
2018-03-27T08:26:39.936Z,23.97
2018-03-27T08:29:07.495Z,21.33
2018-03-27T08:31:35.810Z,15.63
2018-03-27T08:34:03.359Z,18.30
2018-03-27T08:36:31.668Z,19.13
2018-03-27T08:38:59.228Z,18.80
2018-03-27T08:41:26.769Z,16.60
2018-03-27T08:43:54.556Z,15.97
2018-03-27T08:46:22.883Z,19.80
2018-03-27T08:48:50.468Z,17.10
2018-03-27T08:51:18.072Z,13.67
2018-03-27T08:53:45.627Z,18.90
2018-03-27T08:56:13.184Z,12.57
2018-03-27T08:58:40.774Z,16.17
2018-03-27T09:01:09.099Z,15.30
2018-03-27T09:03:37.465Z,14.70
2018-03-27T09:06:04.993Z,20.10
2018-03-27T09:08:32.608Z,15.80
2018-03-27T09:11:00.142Z,20.20
2018-03-27T09:13:28.491Z,15.33
2018-03-27T09:15:56.797Z,14.30
2018-03-27T09:18:24.347Z,16.63
2018-03-27T09:20:52.651Z,15.30
2018-03-27T09:23:20.278Z,10.97
2018-03-27T09:25:47.796Z,11.63
2018-03-27T09:28:15.351Z,14.47
2018-03-27T09:30:43.656Z,11.70
2018-03-27T09:33:12.131Z,12.40
2018-03-27T09:35:39.723Z,6.67
2018-03-27T09:38:07.296Z,11.63
2018-03-27T09:40:34.835Z,7.37
2018-03-27T09:43:02.385Z,9.33
2018-03-27T09:45:29.973Z,8.20
2018-03-27T09:47:57.507Z,8.80
2018-03-27T09:50:25.041Z,9.20
2018-03-27T09:52:53.379Z,7.00
2018-03-27T09:55:20.915Z,6.73
2018-03-27T09:57:48.464Z,10.00
2018-03-27T10:00:16.027Z,7.60
2018-03-27T10:02:43.568Z,8.90
2018-03-27T10:05:11.120Z,9.53
2018-03-27T10:07:38.660Z,8.80
2018-03-27T10:10:06.977Z,13.90
2018-03-27T10:12:34.620Z,9.47
2018-03-27T10:15:02.965Z,5.20
2018-03-27T10:17:30.511Z,10.23
2018-03-27T10:19:58.430Z,9.40
2018-03-27T10:22:26.020Z,5.10
2018-03-27T10:24:53.571Z,5.30
2018-03-27T10:27:21.285Z,6.33
2018-03-27T10:29:48.991Z,6.50
2018-03-27T10:32:16.702Z,7.83
2018-03-27T10:34:44.273Z,6.40
2018-03-27T10:37:11.803Z,4.00
2018-03-27T10:39:39.344Z,5.83
2018-03-27T10:42:07.639Z,7.03
2018-03-27T10:44:35.961Z,8.90
2018-03-27T10:47:03.499Z,5.90
2018-03-27T10:49:31.830Z,5.33
2018-03-27T10:51:59.359Z,6.33
2018-03-27T10:54:27.677Z,5.73
2018-03-27T10:56:55.208Z,8.27
2018-03-27T10:59:23.529Z,7.40
2018-03-27T11:01:51.072Z,6.33
2018-03-27T11:04:19.392Z,7.10
2018-03-27T11:06:46.951Z,4.73
2018-03-27T11:09:14.505Z,4.30
2018-03-27T11:11:42.808Z,7.30
2018-03-27T11:14:11.132Z,5.47
2018-03-27T11:16:38.665Z,5.20
2018-03-27T11:19:06.980Z,6.23
2018-03-27T11:21:34.517Z,5.67
2018-03-27T11:24:02.849Z,4.50
2018-03-27T11:26:30.404Z,4.00
2018-03-27T11:28:57.973Z,4.80
2018-03-27T11:31:25.510Z,4.63
2018-03-27T11:33:53.850Z,4.47
2018-03-27T11:36:21.388Z,3.73
2018-03-27T11:38:49.690Z,5.03
2018-03-27T11:41:17.247Z,3.57
2018-03-27T11:43:45.553Z,3.37
2018-03-27T11:46:13.136Z,4.50
2018-03-27T11:48:40.672Z,2.97
2018-03-27T11:51:09.015Z,5.40
2018-03-27T11:53:36.548Z,4.40
2018-03-27T11:56:04.864Z,3.20
2018-03-27T11:58:32.397Z,5.10
2018-03-27T12:00:59.955Z,5.27
2018-03-27T12:03:27.528Z,2.77
2018-03-27T12:05:55.851Z,2.80
2018-03-27T12:08:23.416Z,4.43
2018-03-27T12:10:50.963Z,4.83
2018-03-27T12:13:19.268Z,5.10
2018-03-27T12:15:47.592Z,3.20
2018-03-27T12:18:15.128Z,3.90
2018-03-27T12:20:43.454Z,2.73
2018-03-27T12:23:10.986Z,2.43
2018-03-27T12:25:39.327Z,3.33
2018-03-27T12:28:06.855Z,3.37
2018-03-27T12:30:35.171Z,3.27
2018-03-27T12:33:02.732Z,6.07
2018-03-27T12:35:30.286Z,4.70
2018-03-27T12:37:58.623Z,3.77
2018-03-27T12:40:26.181Z,2.87
2018-03-27T12:42:53.720Z,4.10
2018-03-27T12:45:22.039Z,5.53
2018-03-27T12:47:49.625Z,4.90
2018-03-27T12:50:17.990Z,3.27
2018-03-27T12:52:45.520Z,4.20
2018-03-27T12:55:13.070Z,3.50
2018-03-27T12:57:40.600Z,5.87
2018-03-27T13:00:08.148Z,4.03
2018-03-27T13:02:36.511Z,4.00
2018-03-27T13:05:04.060Z,4.60
2018-03-27T13:07:31.596Z,7.60
2018-03-27T13:09:59.160Z,4.00
2018-03-27T13:12:27.463Z,4.23
2018-03-27T13:14:55.011Z,4.00
2018-03-27T13:17:23.347Z,3.57
2018-03-27T13:19:50.876Z,3.73
2018-03-27T13:22:19.200Z,3.00
2018-03-27T13:24:46.740Z,3.20
2018-03-27T13:27:15.061Z,5.20
2018-03-27T13:29:42.626Z,4.70
2018-03-27T13:32:10.182Z,3.30
2018-03-27T13:34:37.716Z,7.80
2018-03-27T13:37:05.275Z,7.07
2018-03-27T13:39:32.808Z,3.47
2018-03-27T13:42:00.358Z,4.30
2018-03-27T13:44:28.664Z,5.40
2018-03-27T13:46:56.219Z,4.80
2018-03-27T13:49:23.756Z,4.23
2018-03-27T13:51:51.308Z,3.13
2018-03-27T13:54:19.623Z,3.30
2018-03-27T13:56:47.189Z,9.60
2018-03-27T13:59:14.720Z,7.00
2018-03-27T14:01:42.273Z,4.07
2018-03-27T14:04:09.812Z,3.57
2018-03-27T14:06:37.372Z,5.10
2018-03-27T14:09:05.692Z,4.70
2018-03-27T14:11:34.012Z,8.20
2018-03-27T14:14:01.553Z,4.17
2018-03-27T14:16:29.112Z,4.83
2018-03-27T14:18:57.413Z,5.00
2018-03-27T14:21:24.976Z,4.77
2018-03-27T14:23:53.292Z,5.80
2018-03-27T14:26:20.856Z,3.30
2018-03-27T14:28:48.412Z,5.80
2018-03-27T14:31:16.731Z,8.00
2018-03-27T14:33:44.260Z,6.70
2018-03-27T14:36:11.815Z,4.47
2018-03-27T14:38:40.181Z,8.80
2018-03-27T14:41:07.735Z,3.50
2018-03-27T14:43:35.273Z,5.07
2018-03-27T14:46:03.597Z,4.23
2018-03-27T14:48:31.127Z,4.50
2018-03-27T14:50:58.682Z,6.30
2018-03-27T14:53:26.216Z,6.07
2018-03-27T14:55:53.769Z,4.50
2018-03-27T14:58:21.310Z,7.17
2018-03-27T15:00:48.836Z,6.47
2018-03-27T15:03:16.383Z,5.00
2018-03-27T15:05:43.924Z,6.87
2018-03-27T15:08:12.244Z,3.90
2018-03-27T15:10:39.777Z,5.77
2018-03-27T15:13:07.331Z,6.30
2018-03-27T15:15:34.882Z,5.33
2018-03-27T15:18:02.431Z,3.93
2018-03-27T15:20:30.012Z,3.60
2018-03-27T15:22:57.576Z,7.23
2018-03-27T15:25:25.103Z,4.70
2018-03-27T15:27:53.475Z,7.37
2018-03-27T15:30:21.009Z,4.53
2018-03-27T15:32:48.580Z,4.10
2018-03-27T15:35:16.113Z,4.23
2018-03-27T15:37:43.673Z,4.50
2018-03-27T15:40:11.205Z,5.40
2018-03-27T15:42:38.759Z,10.87
2018-03-27T15:45:06.287Z,4.60
2018-03-27T15:47:33.835Z,3.80
2018-03-27T15:50:01.377Z,4.80
2018-03-27T15:52:28.931Z,8.33
2018-03-27T15:54:57.233Z,4.97
2018-03-27T15:57:24.779Z,5.57
2018-03-27T15:59:53.084Z,8.20
2018-03-27T16:02:21.403Z,6.27
2018-03-27T16:04:48.936Z,8.33
2018-03-27T16:07:17.256Z,10.80
2018-03-27T16:09:44.793Z,2.97
2018-03-27T16:12:13.108Z,4.53
2018-03-27T16:14:40.649Z,4.03
2018-03-27T16:17:08.966Z,4.37
2018-03-27T16:19:36.496Z,6.23
2018-03-27T16:22:04.051Z,3.60
2018-03-27T16:24:31.596Z,4.53
2018-03-27T16:26:59.149Z,5.30
2018-03-27T16:29:26.692Z,4.60
2018-03-27T16:31:55.037Z,4.70
2018-03-27T16:34:22.571Z,4.23
2018-03-27T16:36:50.888Z,6.73
2018-03-27T16:39:18.424Z,7.90
2018-03-27T16:41:46.743Z,4.87
2018-03-27T16:44:14.281Z,3.97
2018-03-27T16:46:42.619Z,5.10
2018-03-27T16:49:10.159Z,6.03
2018-03-27T16:51:37.700Z,10.13
2018-03-27T16:54:05.247Z,3.80
2018-03-27T16:56:32.785Z,5.60
2018-03-27T16:59:00.340Z,5.57
2018-03-27T17:01:27.892Z,5.43
2018-03-27T17:03:55.464Z,5.00
2018-03-27T17:06:23.797Z,8.53
2018-03-27T17:08:51.348Z,5.87
2018-03-27T17:11:18.913Z,4.80
2018-03-27T17:13:47.227Z,7.00
2018-03-27T17:16:14.756Z,9.10
2018-03-27T17:18:43.120Z,21.20
2018-03-27T17:21:10.664Z,238.53
2018-03-27T17:23:38.244Z,129.43
2018-03-27T17:26:05.787Z,174.50
2018-03-27T17:28:33.367Z,22.03
2018-03-27T17:31:00.903Z,35.90
2018-03-27T17:33:29.231Z,20.80
2018-03-27T17:35:56.773Z,10.67
2018-03-27T17:38:25.093Z,9.10
2018-03-27T17:40:52.622Z,8.30
2018-03-27T17:43:20.175Z,7.30
2018-03-27T17:45:47.703Z,8.77
2018-03-27T17:48:15.300Z,8.47
2018-03-27T17:50:42.829Z,6.00
2018-03-27T17:53:10.394Z,9.07
2018-03-27T17:55:38.722Z,8.23
2018-03-27T17:58:06.273Z,10.00
2018-03-27T18:00:33.829Z,10.40
2018-03-27T18:03:01.383Z,15.10
2018-03-27T18:05:29.714Z,10.43
2018-03-27T18:07:57.311Z,8.03
2018-03-27T18:10:24.852Z,10.80
2018-03-27T18:12:52.423Z,7.63
2018-03-27T18:15:19.960Z,11.33
2018-03-27T18:17:47.532Z,12.87
2018-03-27T18:20:15.071Z,12.10
2018-03-27T18:22:42.624Z,9.50
2018-03-27T18:25:10.177Z,6.73
2018-03-27T18:27:37.713Z,7.17
2018-03-27T18:30:05.320Z,9.10
2018-03-27T18:32:32.864Z,9.57
2018-03-27T18:35:01.190Z,10.73
2018-03-27T18:37:28.724Z,11.27
2018-03-27T18:39:57.042Z,8.07
2018-03-27T18:42:24.581Z,7.13
2018-03-27T18:44:52.900Z,8.97
2018-03-27T18:47:20.434Z,5.20
2018-03-27T18:49:47.991Z,11.70
2018-03-27T18:52:15.556Z,8.20
2018-03-27T18:54:43.917Z,10.90
2018-03-27T18:57:11.448Z,11.43
2018-03-27T18:59:39.783Z,6.70
2018-03-27T19:02:07.331Z,6.70
2018-03-27T19:04:34.894Z,9.87
2018-03-27T19:07:03.204Z,12.03
2018-03-27T19:09:30.783Z,10.60
2018-03-27T19:11:58.316Z,8.23
2018-03-27T19:14:26.631Z,8.83
2018-03-27T19:16:54.172Z,8.83
2018-03-27T19:19:22.504Z,8.47
2018-03-27T19:21:50.043Z,9.63
2018-03-27T19:24:18.371Z,7.90
2018-03-27T19:26:45.895Z,7.00
2018-03-27T19:29:14.212Z,10.47
2018-03-27T19:31:41.749Z,10.70
2018-03-27T19:34:09.329Z,15.50
2018-03-27T19:36:37.631Z,8.60
2018-03-27T19:39:05.904Z,11.47
2018-03-27T19:41:34.205Z,8.20
2018-03-27T19:44:02.520Z,9.50
2018-03-27T19:46:30.087Z,8.57
2018-03-27T19:48:57.633Z,8.73
2018-03-27T19:51:25.933Z,6.67
2018-03-27T19:53:53.493Z,14.03
2018-03-27T19:56:21.796Z,13.73
2018-03-27T19:58:49.347Z,13.00
2018-03-27T20:01:17.655Z,10.97
2018-03-27T20:03:45.231Z,11.27
2018-03-27T20:06:12.767Z,12.27
2018-03-27T20:08:40.304Z,9.67
2018-03-27T20:11:07.860Z,13.50
2018-03-27T20:13:35.393Z,12.90
2018-03-27T20:16:03.749Z,7.70
2018-03-27T20:18:31.255Z,10.93
2018-03-27T20:20:59.573Z,12.23
2018-03-27T20:23:27.119Z,9.70
2018-03-27T20:25:55.441Z,7.60
2018-03-27T20:28:22.992Z,8.60
2018-03-27T20:30:50.553Z,13.57
2018-03-27T20:33:18.864Z,7.87
2018-03-27T20:35:46.417Z,8.70
2018-03-27T20:38:14.771Z,11.03
2018-03-27T20:40:42.291Z,10.60
2018-03-27T20:43:09.824Z,6.73
2018-03-27T20:45:37.372Z,8.60
2018-03-27T20:48:04.899Z,8.80
2018-03-27T20:50:32.443Z,9.70
2018-03-27T20:52:59.980Z,12.20
2018-03-27T20:55:27.536Z,8.73
2018-03-27T20:57:55.069Z,14.17
2018-03-27T21:00:23.395Z,9.17
2018-03-27T21:02:50.944Z,9.03
2018-03-27T21:05:19.265Z,13.17
2018-03-27T21:07:46.808Z,16.17
2018-03-27T21:10:14.367Z,7.20
2018-03-27T21:12:41.903Z,9.70
2018-03-27T21:15:09.490Z,10.80
2018-03-27T21:17:37.023Z,9.07
2018-03-27T21:20:04.577Z,9.77
2018-03-27T21:22:32.110Z,9.73
2018-03-27T21:25:00.428Z,13.23
2018-03-27T21:27:28.200Z,12.73
2018-03-27T21:29:55.763Z,15.23
2018-03-27T21:32:24.090Z,11.87
2018-03-27T21:34:51.649Z,8.47
2018-03-27T21:37:19.196Z,10.87
2018-03-27T21:39:47.512Z,9.90
2018-03-27T21:42:15.052Z,13.43
2018-03-27T21:44:42.605Z,9.87
2018-03-27T21:47:10.156Z,9.73
2018-03-27T21:49:37.692Z,10.40
2018-03-27T21:52:05.286Z,12.13
2018-03-27T21:54:32.828Z,9.40
2018-03-27T21:57:00.375Z,9.70
2018-03-27T21:59:28.691Z,15.13
2018-03-27T22:01:56.248Z,15.83
2018-03-27T22:04:24.547Z,11.63
2018-03-27T22:06:52.104Z,11.33
2018-03-27T22:09:20.403Z,9.10
2018-03-27T22:11:47.959Z,8.20
2018-03-27T22:14:16.264Z,11.40
2018-03-27T22:16:43.813Z,13.20
2018-03-27T22:19:11.343Z,6.90
2018-03-27T22:21:38.907Z,8.80
2018-03-27T22:24:06.444Z,9.57
2018-03-27T22:26:34.088Z,11.00
2018-03-27T22:29:01.632Z,14.30
2018-03-27T22:31:29.258Z,9.73
2018-03-27T22:33:56.759Z,8.40
2018-03-27T22:36:24.331Z,10.97
2018-03-27T22:38:51.859Z,8.27
2018-03-27T22:41:20.177Z,9.20
2018-03-27T22:43:47.719Z,11.57
2018-03-27T22:46:16.036Z,9.00
2018-03-27T22:48:43.589Z,8.77
2018-03-27T22:51:11.165Z,13.83
2018-03-27T22:53:38.748Z,16.60
2018-03-27T22:56:06.307Z,8.20
2018-03-27T22:58:34.608Z,8.17
2018-03-27T23:01:02.173Z,10.53
2018-03-27T23:03:29.703Z,10.90
2018-03-27T23:05:57.255Z,10.07
2018-03-27T23:08:24.812Z,11.00
2018-03-27T23:10:52.381Z,11.77
2018-03-27T23:13:19.931Z,10.03
2018-03-27T23:15:47.495Z,12.30
2018-03-27T23:18:15.804Z,10.50
2018-03-27T23:20:43.354Z,13.57
2018-03-27T23:23:11.660Z,9.60
2018-03-27T23:25:39.215Z,7.83
2018-03-27T23:28:07.540Z,9.77
2018-03-27T23:30:35.114Z,7.53
2018-03-27T23:33:02.680Z,14.07
2018-03-27T23:35:30.220Z,16.27
2018-03-27T23:37:58.544Z,8.97
2018-03-27T23:40:26.084Z,12.90
2018-03-27T23:42:54.420Z,8.23
2018-03-27T23:45:21.956Z,7.33
2018-03-27T23:47:49.531Z,12.40
2018-03-27T23:50:17.076Z,11.13
2018-03-27T23:52:44.642Z,16.43
2018-03-27T23:55:12.952Z,10.70
2018-03-27T23:57:41.280Z,10.57
